createdAt,value
2023-04-22T00:02:32.692Z,17.2
2023-04-22T00:08:39.502Z,17.6
2023-04-22T00:10:40.703Z,16
2023-04-22T00:14:43.144Z,17.7
2023-04-22T00:16:44.365Z,22.7
2023-04-22T00:24:52.496Z,16.2
2023-04-22T00:25:54.700Z,23.6
2023-04-22T00:27:55.920Z,19.2
2023-04-22T00:29:57.120Z,17.3
2023-04-22T00:31:58.408Z,18.2
2023-04-22T00:34:02.823Z,20.3
2023-04-22T00:36:04.058Z,14.9
2023-04-22T00:38:05.262Z,17.1
2023-04-22T00:40:06.477Z,16.5
2023-04-22T00:42:07.682Z,17
2023-04-22T00:44:08.915Z,15.2
2023-04-22T00:46:10.077Z,17.3
2023-04-22T00:48:14.714Z,27.6
2023-04-22T00:50:15.787Z,16.7
2023-04-22T00:52:17.020Z,21
2023-04-22T00:54:18.221Z,17.9
2023-04-22T00:56:19.439Z,18.1
2023-04-22T00:58:20.639Z,26.7
2023-04-22T01:00:21.855Z,19.8
2023-04-22T01:02:26.439Z,19.7
2023-04-22T01:08:29.988Z,20.4
2023-04-22T01:10:31.201Z,21
2023-04-22T01:12:32.430Z,23.1
2023-04-22T01:14:33.615Z,32.1
2023-04-22T01:16:38.248Z,21.8
2023-04-22T01:18:39.276Z,22.5
2023-04-22T01:20:40.494Z,25.1
2023-04-22T01:23:08.827Z,22.6
2023-04-22T01:25:10.039Z,22.7
2023-04-22T01:27:11.228Z,23.9
2023-04-22T01:29:15.731Z,22.3
2023-04-22T01:31:16.911Z,23.8
2023-04-22T01:33:18.147Z,29.4
2023-04-22T01:35:19.353Z,25.7
2023-04-22T01:37:20.550Z,29.9
2023-04-22T01:39:21.763Z,25.9
2023-04-22T01:43:27.408Z,27.5
2023-04-22T01:47:29.826Z,22.8
2023-04-22T01:49:31.052Z,26.8
2023-04-22T01:51:32.239Z,25.9
2023-04-22T01:55:34.643Z,32.4
2023-04-22T01:57:39.133Z,30.4
2023-04-22T01:59:40.837Z,34
2023-04-22T02:03:42.824Z,34.8
2023-04-22T02:05:43.918Z,36
2023-04-22T02:07:45.169Z,33.6
2023-04-22T02:09:47.764Z,36.4
2023-04-22T02:13:52.002Z,31.9
2023-04-22T02:15:53.282Z,30.1
2023-04-22T02:16:55.416Z,37.2
2023-04-22T02:18:56.635Z,35.5
2023-04-22T02:20:57.789Z,41.1
2023-04-22T02:22:59.007Z,37.7
2023-04-22T02:25:03.471Z,41.8
2023-04-22T02:27:04.660Z,36.2
2023-04-22T02:29:05.855Z,34.6
2023-04-22T02:31:07.116Z,41.1
2023-04-22T02:37:10.644Z,38.7
2023-04-22T02:41:16.291Z,43.8
2023-04-22T02:43:17.489Z,41.1
2023-04-22T02:45:18.702Z,46
2023-04-22T02:53:26.747Z,49.6
2023-04-22T02:57:29.113Z,43.2
2023-04-22T02:59:30.355Z,48.1
2023-04-22T03:01:31.651Z,51.2
2023-04-22T03:05:33.951Z,50.9
2023-04-22T03:07:38.394Z,50
2023-04-22T03:09:39.833Z,47.7
2023-04-22T03:12:43.035Z,50.7
2023-04-22T03:14:44.205Z,46.8
2023-04-22T03:16:45.433Z,50
2023-04-22T03:18:46.623Z,44.5
2023-04-22T03:22:52.261Z,45.6
2023-04-22T03:24:53.450Z,46.3
2023-04-22T03:26:54.655Z,56.4
2023-04-22T03:28:57.392Z,50.2
2023-04-22T03:30:58.522Z,46.8
2023-04-22T03:32:59.862Z,44.6
2023-04-22T03:35:04.192Z,39.2
2023-04-22T03:39:06.589Z,40.4
2023-04-22T03:41:07.855Z,41.6
2023-04-22T03:43:08.946Z,37.3
2023-04-22T03:45:10.151Z,46.8
2023-04-22T03:51:17.006Z,55.5
2023-04-22T03:57:20.595Z,47.5
2023-04-22T04:01:23.016Z,53.1
2023-04-22T04:03:30.185Z,55.4
2023-04-22T04:05:28.852Z,52.4
2023-04-22T04:07:29.854Z,51.9
2023-04-22T04:08:32.078Z,49.5
2023-04-22T04:10:33.285Z,58.4
2023-04-22T04:12:34.485Z,55.8
2023-04-22T04:18:41.331Z,51.8
2023-04-22T04:22:43.702Z,45.5
2023-04-22T04:24:44.895Z,51.7
2023-04-22T04:28:47.285Z,49.9
2023-04-22T04:30:51.762Z,54.7
2023-04-22T04:32:53.002Z,63.5
2023-04-22T04:53:08.165Z,53.9
2023-04-22T04:55:09.411Z,50.8
2023-04-22T04:59:15.051Z,70.6
2023-04-22T05:01:16.289Z,53.4
2023-04-22T05:03:17.616Z,59.2
2023-04-22T05:09:48.194Z,63.2
2023-04-22T05:11:52.664Z,70
2023-04-22T05:13:53.900Z,65.2
2023-04-22T05:17:56.311Z,56.7
2023-04-22T05:19:57.475Z,60.7
2023-04-22T05:21:58.684Z,77.3
2023-04-22T05:23:59.887Z,66.7
2023-04-22T05:30:07.722Z,66.4
2023-04-22T05:32:09.028Z,64.3
2023-04-22T05:36:11.324Z,57.2
2023-04-22T05:38:12.546Z,59.3
2023-04-22T05:42:18.211Z,66.5
2023-04-22T05:44:19.411Z,52.4
2023-04-22T05:46:20.665Z,58.4
2023-04-22T05:48:21.871Z,55.7
2023-04-22T05:50:23.492Z,65.6
2023-04-22T05:59:33.391Z,55.2
2023-04-22T06:01:34.578Z,55.5
2023-04-22T06:03:36.226Z,56.5
2023-04-22T06:05:37.075Z,55.8
2023-04-22T06:07:41.496Z,53
2023-04-22T06:09:42.887Z,59.9
2023-04-22T06:11:43.876Z,58.8
2023-04-22T06:13:45.117Z,71.9
2023-04-22T06:15:46.330Z,90.7
2023-04-22T06:17:47.582Z,65
2023-04-22T06:19:48.716Z,62.6
2023-04-22T06:21:53.176Z,71.5
2023-04-22T06:23:54.424Z,63.5
2023-04-22T06:25:55.614Z,62.9
2023-04-22T06:27:56.812Z,60.4
2023-04-22T06:29:58.027Z,56.4
2023-04-22T06:31:59.225Z,66.6
2023-04-22T06:34:00.444Z,55.1
2023-04-22T06:36:04.927Z,59.3
2023-04-22T06:38:06.130Z,57.3
2023-04-22T06:40:07.315Z,56.3
2023-04-22T06:42:08.553Z,61.5
2023-04-22T06:44:09.746Z,60.2
2023-04-22T06:50:16.683Z,50.7
2023-04-22T06:55:21.337Z,52.6
2023-04-22T06:57:22.577Z,45.1
2023-04-22T06:59:23.852Z,59.8
2023-04-22T07:01:25.017Z,55.3
2023-04-22T07:03:29.643Z,48.4
2023-04-22T07:05:30.665Z,50.6
2023-04-22T07:07:31.866Z,48
2023-04-22T07:11:34.306Z,56.6
2023-04-22T07:13:35.524Z,53.1
2023-04-22T07:15:36.719Z,45.9
2023-04-22T07:17:41.256Z,43.7
2023-04-22T07:19:42.516Z,45.2
2023-04-22T07:21:43.626Z,40.8
2023-04-22T07:23:44.858Z,34.8
2023-04-22T07:29:48.488Z,31.6
2023-04-22T07:35:55.444Z,41.7
2023-04-22T07:37:56.699Z,29.8
2023-04-22T07:44:00.204Z,33.7
2023-04-22T07:48:05.699Z,27.2
2023-04-22T07:50:06.712Z,26.4
2023-04-22T07:51:08.878Z,26
2023-04-22T07:55:11.216Z,24.1
2023-04-22T07:57:12.347Z,28.8
2023-04-22T07:59:16.631Z,29.9
2023-04-22T08:01:19.960Z,31.4
2023-04-22T08:05:20.003Z,31.3
2023-04-22T08:09:22.176Z,22.5
2023-04-22T08:11:23.250Z,24
2023-04-22T08:13:27.558Z,21.3
2023-04-22T08:15:28.671Z,21.4
2023-04-22T08:19:30.874Z,18.4
2023-04-22T08:21:31.953Z,23
2023-04-22T08:23:33.064Z,20.2
2023-04-22T08:25:34.161Z,21.3
2023-04-22T08:27:38.465Z,23.8
2023-04-22T08:29:39.746Z,23.2
2023-04-22T08:31:40.761Z,18.5
2023-04-22T08:33:41.718Z,30.9
2023-04-22T08:35:42.803Z,19.8
2023-04-22T08:37:43.937Z,25
2023-04-22T08:39:45.000Z,29.2
2023-04-22T08:41:49.276Z,21.1
2023-04-22T08:43:50.368Z,25.8
2023-04-22T08:45:51.452Z,18.9
2023-04-22T08:58:27.990Z,20.5
2023-04-22T09:02:30.198Z,26.8
2023-04-22T09:04:31.329Z,18.6
2023-04-22T09:08:36.547Z,18.7
2023-04-22T09:10:37.599Z,23.5
2023-04-22T09:12:38.659Z,20.4
2023-04-22T09:20:44.420Z,57.7
2023-04-22T09:22:48.769Z,17.5
2023-04-22T09:28:51.844Z,20.9
2023-04-22T09:36:59.305Z,12.1
2023-04-22T09:39:00.287Z,9.6
2023-04-22T09:41:01.355Z,10.2
2023-04-22T09:42:03.454Z,10.2
2023-04-22T09:44:04.503Z,11.7
2023-04-22T09:50:10.905Z,11
2023-04-22T09:52:11.871Z,37
2023-04-22T10:02:17.076Z,16.3
2023-04-22T10:04:21.427Z,22.7
2023-04-22T10:06:22.295Z,15.4
2023-04-22T10:08:23.313Z,23.1
2023-04-22T10:10:24.316Z,18.1
2023-04-22T10:12:32.841Z,35.5
2023-04-22T10:18:31.616Z,16.5
2023-04-22T10:20:32.593Z,26.4
2023-04-22T10:22:33.610Z,14.8
2023-04-22T10:26:35.582Z,23.4
2023-04-22T10:28:36.570Z,23.9
2023-04-22T10:32:41.799Z,12.7
2023-04-22T10:34:42.749Z,11.6
2023-04-22T10:43:48.817Z,8.6
2023-04-22T10:49:55.051Z,15
2023-04-22T10:53:57.023Z,13.1
2023-04-22T10:55:58.004Z,11.9
2023-04-22T10:57:58.990Z,10.9
2023-04-22T11:00:03.153Z,10.4
2023-04-22T11:02:04.151Z,11.2
2023-04-22T11:04:05.240Z,12.2
2023-04-22T11:06:06.109Z,8.5
2023-04-22T11:08:07.147Z,10.8
2023-04-22T11:33:27.695Z,9.2
2023-04-22T11:35:28.693Z,11
2023-04-22T11:37:29.735Z,10.7
2023-04-22T11:39:30.843Z,132.1
2023-04-22T11:41:34.937Z,13.7
2023-04-22T11:43:35.973Z,13.7
2023-04-22T11:47:37.998Z,11.7
2023-04-22T11:51:40.011Z,9.6
2023-04-22T11:57:46.309Z,12.9
2023-04-22T11:59:47.316Z,7.2
2023-04-22T12:01:48.396Z,12
2023-04-22T12:03:49.493Z,9.8
2023-04-22T12:07:51.463Z,15.9
2023-04-22T12:09:55.679Z,20
2023-04-22T12:13:57.761Z,14.8
2023-04-22T12:26:07.253Z,15.1
2023-04-22T12:28:08.366Z,23.9
2023-04-22T12:32:37.285Z,17.6
2023-04-22T12:42:45.760Z,10.9
2023-04-22T12:44:46.859Z,21.9
2023-04-22T12:46:47.975Z,12.1
2023-04-22T12:50:53.248Z,15.7
2023-04-22T12:52:54.297Z,15.7
2023-04-22T12:54:55.364Z,19.9
2023-04-22T12:56:56.423Z,8.3
2023-04-22T12:58:57.530Z,11.6
2023-04-22T13:05:03.902Z,14.3
2023-04-22T13:07:04.992Z,19
2023-04-22T13:11:07.161Z,15.6
2023-04-22T13:15:09.275Z,13.2
2023-04-22T13:17:10.345Z,11.7
2023-04-22T13:19:14.611Z,14
2023-04-22T13:21:15.680Z,18.8
2023-04-22T13:23:16.758Z,14
2023-04-22T13:24:18.882Z,20.8
2023-04-22T13:26:19.966Z,27.3
2023-04-22T13:28:21.040Z,15.7
2023-04-22T13:30:22.113Z,13.6
2023-04-22T13:32:26.429Z,30.3
2023-04-22T13:34:27.450Z,20.9
2023-04-22T13:36:28.515Z,21.6
2023-04-22T13:38:29.589Z,14.3
2023-04-22T13:40:30.695Z,13.2
2023-04-22T13:42:31.752Z,18.4
2023-04-22T13:44:32.809Z,26.3
2023-04-22T13:52:40.339Z,21
2023-04-22T13:54:41.399Z,15.7
2023-04-22T13:56:42.513Z,20.9
2023-04-22T13:58:43.591Z,29.2
2023-04-22T14:00:47.933Z,145.6
2023-04-22T14:04:50.076Z,78.6
2023-04-22T14:06:51.170Z,42
2023-04-22T14:08:52.266Z,30.9
2023-04-22T14:10:53.335Z,31.7
2023-04-22T14:12:54.445Z,45.6
2023-04-22T14:19:00.944Z,37.3
2023-04-22T14:20:03.041Z,39.7
2023-04-22T14:22:04.163Z,31.4
2023-04-22T14:26:06.345Z,45.1
2023-04-22T14:28:10.647Z,43.2
2023-04-22T14:30:11.747Z,40
2023-04-22T14:36:15.039Z,33.9
2023-04-22T14:40:17.253Z,36.7
2023-04-22T14:46:23.737Z,36
2023-04-22T14:48:24.836Z,30.2
2023-04-22T14:58:33.578Z,74
2023-04-22T15:02:36.054Z,34.5
2023-04-22T15:04:37.020Z,31.1
2023-04-22T15:08:40.675Z,34.6
2023-04-22T15:10:44.929Z,32.3
2023-04-22T15:12:46.026Z,44.3
2023-04-22T15:14:47.136Z,81.2
2023-04-22T15:15:49.303Z,129
2023-04-22T15:23:56.888Z,37.7
2023-04-22T15:25:57.974Z,98.2
2023-04-22T15:27:59.121Z,57.7
2023-04-22T15:30:00.241Z,28
2023-04-22T15:32:01.370Z,81.8
2023-04-22T15:36:03.546Z,77.4
2023-04-22T15:38:07.872Z,62.9
2023-04-22T15:40:08.930Z,85.7
2023-04-22T15:42:10.021Z,98.2
2023-04-22T15:46:12.240Z,202.2
2023-04-22T15:50:14.494Z,36.5
2023-04-22T15:52:18.753Z,43.8
2023-04-22T16:10:31.937Z,186
2023-04-22T16:12:59.914Z,194.5
2023-04-22T16:17:02.281Z,92.5
2023-04-22T16:19:06.447Z,158.7
2023-04-22T16:21:07.556Z,186.3
2023-04-22T16:23:08.641Z,51.8
2023-04-22T16:25:09.788Z,68.4
2023-04-22T16:27:10.895Z,40.5
2023-04-22T16:29:11.992Z,131.1
2023-04-22T16:31:13.216Z,97.5
2023-04-22T16:33:17.375Z,121.3
2023-04-22T16:35:18.500Z,54.5
2023-04-22T16:37:19.614Z,52.8
2023-04-22T16:39:20.729Z,104.3
2023-04-22T16:41:21.832Z,181.6
2023-04-22T16:43:22.940Z,74.9
2023-04-22T16:45:24.061Z,167.5
2023-04-22T16:49:29.458Z,124.6
2023-04-22T16:51:30.604Z,141.7
2023-04-22T16:53:31.702Z,48.8
2023-04-22T16:57:34.059Z,99.6
2023-04-22T17:03:40.934Z,275.5
2023-04-22T17:05:41.677Z,172.6
2023-04-22T17:06:43.832Z,88.3
2023-04-22T17:08:44.930Z,250.2
2023-04-22T17:10:46.942Z,311.5
2023-04-22T17:12:48.100Z,191
2023-04-22T17:14:52.372Z,106.2
2023-04-22T17:16:53.482Z,70
2023-04-22T17:18:54.613Z,89.7
2023-04-22T17:22:56.848Z,31.9
2023-04-22T17:24:57.928Z,21.6
2023-04-22T17:26:59.050Z,22.5
2023-04-22T17:29:03.396Z,21.4
2023-04-22T17:31:04.501Z,18.5
2023-04-22T17:33:05.580Z,23
2023-04-22T17:35:06.779Z,22.9
2023-04-22T17:37:07.863Z,30.6
2023-04-22T17:39:09.106Z,33.1
2023-04-22T17:41:10.304Z,41.5
2023-04-22T17:43:14.726Z,39.6
2023-04-22T17:45:15.984Z,46.7
2023-04-22T17:47:17.145Z,38.8
2023-04-22T17:55:22.057Z,50.7
2023-04-22T18:02:31.352Z,56.9
2023-04-22T18:04:32.451Z,39.7
2023-04-22T18:08:34.874Z,50.8
2023-04-22T18:10:39.372Z,57.3
2023-04-22T18:12:40.606Z,40.6
2023-04-22T18:14:41.797Z,43.9
2023-04-22T18:18:44.258Z,50.5
2023-04-22T18:20:45.470Z,45.4
2023-04-22T18:22:46.684Z,54.3
2023-04-22T18:24:51.160Z,51
2023-04-22T18:26:52.368Z,61.3
2023-04-22T18:28:53.584Z,55.7
2023-04-22T18:30:54.831Z,63
2023-04-22T18:32:56.051Z,63.6
2023-04-22T18:34:57.250Z,60.9
2023-04-22T18:36:58.456Z,66.1
2023-04-22T18:39:02.907Z,56.3
2023-04-22T18:43:05.327Z,60.8
2023-04-22T18:45:06.542Z,54.4
2023-04-22T18:47:07.763Z,64.9
2023-04-22T18:49:08.987Z,54.5
2023-04-22T18:51:10.195Z,57
2023-04-22T18:55:15.875Z,58.3
2023-04-22T18:57:17.090Z,54.6
2023-04-22T18:58:19.326Z,58.7
2023-04-22T19:00:20.540Z,56.1
2023-04-22T19:02:21.763Z,62.8
2023-04-22T19:04:23.016Z,53.8
2023-04-22T19:06:27.429Z,53.4
2023-04-22T19:08:28.659Z,53.4
2023-04-22T19:10:29.837Z,65.2
2023-04-22T19:12:31.102Z,58
2023-04-22T19:14:32.284Z,62.7
2023-04-22T19:16:33.520Z,67.9
2023-04-22T19:18:34.701Z,55.2
2023-04-22T19:36:52.125Z,67.5
2023-04-22T19:38:53.347Z,56.8
2023-04-22T19:42:55.769Z,59.7
2023-04-22T19:44:56.990Z,62.8
2023-04-22T19:46:58.340Z,66.5
2023-04-22T19:49:02.660Z,63.4
2023-04-22T19:51:03.871Z,60.9
2023-04-22T19:53:05.051Z,69.1
2023-04-22T19:55:33.493Z,68.2
2023-04-22T19:59:35.888Z,66.4
2023-04-22T20:03:41.739Z,62.2
2023-04-22T20:05:42.787Z,79.7
2023-04-22T20:07:43.999Z,68.3
2023-04-22T20:09:45.237Z,64.8
2023-04-22T20:11:46.430Z,75.3
2023-04-22T20:13:48.128Z,83.5
2023-04-22T20:15:52.137Z,68.3
2023-04-22T20:36:07.476Z,89
2023-04-22T20:38:08.672Z,93.6
2023-04-22T20:40:09.884Z,90.9
2023-04-22T20:42:11.129Z,86
2023-04-22T20:44:15.597Z,101.6
2023-04-22T20:46:16.997Z,98.9
2023-04-22T20:48:18.047Z,106.1
2023-04-22T20:49:20.250Z,101.3
2023-04-22T20:51:21.470Z,116.6
2023-04-22T20:53:22.691Z,107.3
2023-04-22T20:55:23.901Z,115.6
2023-04-22T20:57:29.921Z,112.1
2023-04-22T20:59:31.102Z,108.2
2023-04-22T21:01:32.372Z,112.9
2023-04-22T21:03:33.673Z,118.2
2023-04-22T21:23:49.006Z,123.6
2023-04-22T21:27:54.622Z,137.4
2023-04-22T21:29:55.828Z,133.7
2023-04-22T21:32:08.233Z,141.5
2023-04-22T21:33:58.258Z,141.2
2023-04-22T21:35:59.449Z,133.7
2023-04-22T21:45:09.816Z,152
2023-04-22T21:47:11.041Z,144.3
2023-04-22T21:49:12.278Z,148.7
2023-04-22T21:57:20.377Z,149.8
2023-04-22T22:01:22.831Z,146.9
2023-04-22T22:03:24.172Z,144.7
2023-04-22T22:05:25.188Z,145.4
2023-04-22T22:07:29.660Z,163.2
2023-04-22T22:09:30.862Z,158.2
2023-04-22T22:11:32.053Z,151.3
2023-04-22T22:13:33.242Z,165.9
2023-04-22T22:15:34.473Z,157.1
2023-04-22T22:17:35.696Z,171
2023-04-22T22:21:41.355Z,166.4
2023-04-22T22:23:42.550Z,180.3
2023-04-22T22:25:43.762Z,172.5
2023-04-22T22:33:48.641Z,166.6
2023-04-22T22:37:54.282Z,189.2
2023-04-22T22:39:55.479Z,180.6
2023-04-22T22:40:57.745Z,164.2
2023-04-22T22:49:05.767Z,183.4
2023-04-22T22:53:08.170Z,189.6
2023-04-22T22:55:09.389Z,189.5
2023-04-22T22:57:10.613Z,169.3
2023-04-22T22:59:11.813Z,194.8
2023-04-22T23:01:13.102Z,182.1
2023-04-22T23:03:19.689Z,195.8
2023-04-22T23:05:18.682Z,190.3
2023-04-22T23:07:19.895Z,191.5
2023-04-22T23:13:23.550Z,159.9
2023-04-22T23:15:24.791Z,173
2023-04-22T23:19:30.445Z,175.4
2023-04-22T23:23:32.866Z,181.7
2023-04-22T23:33:42.119Z,162.5
2023-04-22T23:35:43.314Z,171.2
2023-04-22T23:38:11.636Z,174.2
2023-04-22T23:40:12.819Z,190
2023-04-22T23:46:19.704Z,162.2
2023-04-22T23:50:22.115Z,163.6
2023-04-22T23:52:23.301Z,167.7
2023-04-22T23:54:24.505Z,168.1
2023-04-22T23:56:25.717Z,184.9
2023-04-22T23:58:30.169Z,165.9
